Time;durP1;ratioP1;P1;durP2;ratioP2;P2;SDS_P1;SDS_P2;PMS_P1;PMS_P2;Temp;Humidity;BMP_temperature;BMP_pressure;BME280_temperature;BME280_humidity;BME280_pressure;Samples;Min_cycle;Max_cycle;Signal;HPM_P1;HPM_P2
2021/03/22 00:00:19;;;;;;;23.55;16.30;;;7.30;59.70;;;;;;5071061;28;20052;-71
2021/03/22 00:02:46;;;;;;;22.63;15.50;;;7.30;59.70;;;;;;5064261;28;20025;-71
2021/03/22 00:05:12;;;;;;;27.08;16.73;;;7.40;59.90;;;;;;5052745;28;20052;-71
2021/03/22 00:07:38;;;;;;;27.70;17.15;;;7.30;59.90;;;;;;5052603;28;20541;-72
2021/03/22 00:10:05;;;;;;;22.58;15.93;;;7.40;60.00;;;;;;5051266;28;20116;-72
2021/03/22 00:12:31;;;;;;;23.83;15.85;;;7.30;60.00;;;;;;5052427;28;20204;-72
2021/03/22 00:14:57;;;;;;;24.17;16.20;;;7.30;60.10;;;;;;5052470;28;20530;-71
2021/03/22 00:17:23;;;;;;;27.27;17.45;;;7.30;60.20;;;;;;5052549;28;20100;-72
2021/03/22 00:19:48;;;;;;;27.85;18.08;;;7.30;60.30;;;;;;5051099;28;20021;-72
2021/03/22 00:22:14;;;;;;;24.45;17.05;;;7.30;60.50;;;;;;5058508;28;20127;-73
2021/03/22 00:24:40;;;;;;;26.70;17.67;;;7.20;60.60;;;;;;5053821;28;20037;-72
2021/03/22 00:27:06;;;;;;;25.50;17.60;;;7.20;60.80;;;;;;5066802;28;20089;-71
2021/03/22 00:29:32;;;;;;;26.77;18.23;;;7.10;60.90;;;;;;5061443;28;20055;-73
2021/03/22 00:31:58;;;;;;;28.77;16.52;;;7.10;61.00;;;;;;5051843;28;20060;-72
2021/03/22 00:34:24;;;;;;;26.05;16.40;;;7.00;61.00;;;;;;5051987;28;20028;-73
2021/03/22 00:36:50;;;;;;;27.35;17.42;;;7.00;61.10;;;;;;5052042;28;20044;-73
2021/03/22 00:39:15;;;;;;;26.48;18.17;;;7.00;61.20;;;;;;5052111;28;20021;-72
2021/03/22 00:41:41;;;;;;;27.20;18.42;;;6.90;61.40;;;;;;5051817;28;20025;-73
2021/03/22 00:44:07;;;;;;;30.13;19.13;;;6.90;61.60;;;;;;5050789;28;20108;-71
2021/03/22 00:46:33;;;;;;;27.95;18.85;;;6.80;61.70;;;;;;5050466;28;20415;-72
2021/03/22 00:48:58;;;;;;;29.20;18.17;;;6.80;61.80;;;;;;5051689;28;20491;-71
2021/03/22 00:51:24;;;;;;;28.08;18.58;;;6.70;62.00;;;;;;5051765;28;20130;-73
2021/03/22 00:53:50;;;;;;;27.98;17.25;;;6.70;62.30;;;;;;5051699;28;20490;-71
2021/03/22 00:56:15;;;;;;;24.08;16.92;;;6.70;62.40;;;;;;5053346;28;20104;-73
2021/03/22 00:58:41;;;;;;;27.05;18.35;;;6.70;62.40;;;;;;5058206;28;20091;-73
2021/03/22 01:01:08;;;;;;;25.13;16.23;;;6.70;62.40;;;;;;5058768;28;20497;-72
2021/03/22 01:03:35;;;;;;;29.30;19.48;;;6.70;62.40;;;;;;5058516;28;20021;-71
2021/03/22 01:06:03;;;;;;;31.08;20.45;;;6.60;62.50;;;;;;5060731;28;20021;-72
2021/03/22 01:08:32;;;;;;;30.25;18.10;;;6.50;62.80;;;;;;5058518;28;20395;-72
2021/03/22 01:11:01;;;;;;;28.55;19.20;;;6.60;63.10;;;;;;5065257;28;20108;-72
2021/03/22 01:13:39;;;;;;;24.00;17.00;;;6.50;63.10;;;;;;5078559;28;20035;-73
2021/03/22 01:16:05;;;;;;;24.10;15.70;;;6.50;63.10;;;;;;5075199;28;20021;-73
2021/03/22 01:18:35;;;;;;;24.45;16.15;;;6.60;63.10;;;;;;5078259;28;20059;-72
2021/03/22 01:21:27;;;;;;;24.35;17.30;;;6.60;63.30;;;;;;5061057;28;20025;-73
2021/03/22 01:23:54;;;;;;;21.63;14.98;;;6.70;63.40;;;;;;5080581;28;20067;-74
2021/03/22 01:26:23;;;;;;;24.95;17.17;;;6.70;63.30;;;;;;5068608;28;20029;-72
2021/03/22 01:28:49;;;;;;;30.00;19.52;;;6.80;63.40;;;;;;5058365;28;20377;-73
2021/03/22 01:31:16;;;;;;;28.60;18.40;;;6.80;63.50;;;;;;5058426;28;20025;-72
2021/03/22 01:33:44;;;;;;;30.13;19.33;;;6.90;63.50;;;;;;5073689;28;20033;-71
2021/03/22 01:36:15;;;;;;;25.58;17.83;;;6.90;63.40;;;;;;5059911;28;20025;-72
2021/03/22 01:38:42;;;;;;;26.63;17.50;;;6.90;63.20;;;;;;5058371;28;20355;-72
2021/03/22 01:41:42;;;;;;;23.42;16.38;;;6.90;63.00;;;;;;5058288;28;20071;-74
2021/03/22 01:44:27;;;;;;;24.95;17.05;;;7.00;62.90;;;;;;5057046;28;20028;-72
2021/03/22 01:47:01;;;;;;;25.50;16.45;;;7.00;62.80;;;;;;5058088;28;20028;-72
2021/03/22 01:49:31;;;;;;;25.60;17.48;;;7.00;62.80;;;;;;5060068;28;20129;-73
2021/03/22 01:51:57;;;;;;;29.95;18.95;;;7.00;62.70;;;;;;5075954;28;20032;-73
2021/03/22 01:54:24;;;;;;;29.25;19.45;;;7.00;62.80;;;;;;5072716;28;20055;-71
2021/03/22 01:57:17;;;;;;;29.20;18.88;;;7.00;62.70;;;;;;5058101;28;20025;-73
2021/03/22 01:59:42;;;;;;;24.95;17.05;;;7.00;62.80;;;;;;5060588;28;20474;-72
2021/03/22 02:02:08;;;;;;;26.92;18.30;;;7.00;62.80;;;;;;5057574;28;20055;-71
2021/03/22 02:04:34;;;;;;;30.60;19.40;;;7.00;62.80;;;;;;5058063;28;20039;-72
2021/03/22 02:07:00;;;;;;;29.33;18.42;;;7.00;62.90;;;;;;5057898;28;20103;-73
2021/03/22 02:09:26;;;;;;;22.40;15.38;;;7.00;62.80;;;;;;5054257;28;20105;-72
2021/03/22 02:11:52;;;;;;;26.15;18.25;;;7.10;62.80;;;;;;5054700;28;20099;-71
2021/03/22 02:14:18;;;;;;;26.98;18.88;;;7.10;62.80;;;;;;5065331;28;20367;-71
2021/03/22 02:17:04;;;;;;;25.30;17.70;;;7.10;62.90;;;;;;5074837;28;20493;-73
2021/03/22 02:20:06;;;;;;;25.65;17.60;;;7.00;62.80;;;;;;5071874;28;20025;-71
2021/03/22 02:22:52;;;;;;;22.05;15.45;;;7.00;62.70;;;;;;5073218;28;20032;-73
2021/03/22 02:25:26;;;;;;;26.10;16.60;;;7.00;62.50;;;;;;5056097;28;20024;-72
2021/03/22 02:28:19;;;;;;;22.95;15.52;;;7.00;62.40;;;;;;5054812;28;20385;-74
2021/03/22 02:31:13;;;;;;;25.13;16.45;;;7.00;62.40;;;;;;5056366;28;20024;-72
2021/03/22 02:34:07;;;;;;;26.58;17.02;;;6.90;62.20;;;;;;5068599;28;20032;-73
2021/03/22 02:36:33;;;;;;;25.92;16.98;;;6.90;62.30;;;;;;5069829;28;20025;-73
2021/03/22 02:39:01;;;;;;;21.77;15.00;;;6.90;62.20;;;;;;5054346;28;20478;-73
2021/03/22 02:41:33;;;;;;;19.50;14.07;;;6.90;62.20;;;;;;5054352;28;20443;-72
2021/03/22 02:44:09;;;;;;;21.33;13.88;;;6.90;62.20;;;;;;5054168;28;20025;-73
2021/03/22 02:46:36;;;;;;;22.52;14.00;;;6.90;62.20;;;;;;5054116;28;20033;-71
2021/03/22 02:49:06;;;;;;;21.67;14.80;;;6.90;62.30;;;;;;5054081;28;20029;-72
2021/03/22 02:51:38;;;;;;;27.23;17.50;;;6.90;62.50;;;;;;5053932;28;20044;-72
2021/03/22 02:54:23;;;;;;;23.23;15.55;;;6.90;62.50;;;;;;5057525;28;20043;-72
2021/03/22 02:57:13;;;;;;;26.77;17.70;;;6.90;62.60;;;;;;5057371;28;20025;-72
2021/03/22 02:59:53;;;;;;;27.13;18.13;;;6.90;62.70;;;;;;5059123;28;20037;-73
2021/03/22 03:02:20;;;;;;;24.77;17.25;;;6.90;62.70;;;;;;5053799;28;20494;-74
2021/03/22 03:04:46;;;;;;;23.48;16.60;;;6.90;62.70;;;;;;5072229;28;20108;-72
2021/03/22 03:07:22;;;;;;;24.83;15.85;;;6.90;62.70;;;;;;5053810;28;20029;-73
2021/03/22 03:09:48;;;;;;;25.45;15.98;;;6.90;62.70;;;;;;5053901;28;20514;-72
2021/03/22 03:12:18;;;;;;;22.08;15.73;;;6.90;62.70;;;;;;5053566;28;20108;-72
2021/03/22 03:14:50;;;;;;;22.08;15.90;;;6.80;62.70;;;;;;5053585;28;20115;-71
2021/03/22 03:17:17;;;;;;;21.55;15.30;;;6.80;62.70;;;;;;5053736;28;20096;-71
2021/03/22 03:19:42;;;;;;;22.48;14.95;;;6.90;62.70;;;;;;5052285;28;20055;-72
2021/03/22 03:22:08;;;;;;;25.52;16.52;;;6.90;62.70;;;;;;5054356;28;20526;-71
2021/03/22 03:24:35;;;;;;;22.83;16.55;;;6.90;62.70;;;;;;5053134;28;20025;-72
2021/03/22 03:27:02;;;;;;;23.00;16.15;;;6.90;62.80;;;;;;5053055;28;20578;-74
2021/03/22 03:29:28;;;;;;;21.25;15.13;;;6.90;62.80;;;;;;5053340;28;20082;-72
2021/03/22 03:31:53;;;;;;;23.58;16.70;;;6.90;62.70;;;;;;5053071;28;20029;-71
2021/03/22 03:34:19;;;;;;;23.13;16.40;;;6.90;62.70;;;;;;5053259;28;20044;-73
2021/03/22 03:36:45;;;;;;;23.00;15.60;;;6.90;62.60;;;;;;5053186;28;20486;-72
2021/03/22 03:39:11;;;;;;;24.50;16.75;;;6.90;62.60;;;;;;5053231;28;20081;-72
2021/03/22 03:41:40;;;;;;;22.80;15.88;;;6.90;62.60;;;;;;5053073;28;20501;-72
2021/03/22 03:44:08;;;;;;;23.00;15.73;;;6.90;62.60;;;;;;5053187;28;20521;-73
2021/03/22 03:46:34;;;;;;;24.05;15.00;;;6.90;62.50;;;;;;5053062;28;20167;-73
2021/03/22 03:49:00;;;;;;;24.85;16.92;;;7.00;62.50;;;;;;5052945;28;20112;-71
2021/03/22 03:51:26;;;;;;;24.27;16.27;;;6.90;62.30;;;;;;5052871;28;20509;-71
2021/03/22 03:53:52;;;;;;;24.50;16.65;;;6.90;62.30;;;;;;5053906;28;20029;-73
2021/03/22 03:56:18;;;;;;;23.48;16.15;;;6.90;62.40;;;;;;5071851;28;20067;-72
2021/03/22 03:58:44;;;;;;;24.83;17.55;;;6.90;62.40;;;;;;5052966;28;20074;-72
2021/03/22 04:01:10;;;;;;;24.63;16.45;;;6.90;62.40;;;;;;5052614;28;20433;-72
2021/03/22 04:03:38;;;;;;;25.75;16.95;;;6.90;62.50;;;;;;5051495;28;20104;-71
2021/03/22 04:06:11;;;;;;;23.92;17.05;;;6.80;62.60;;;;;;5052818;28;20028;-73
2021/03/22 04:08:51;;;;;;;25.35;17.08;;;6.80;62.70;;;;;;5052721;28;20020;-72
2021/03/22 04:11:20;;;;;;;24.27;16.40;;;6.80;62.80;;;;;;5052534;28;20144;-72
2021/03/22 04:13:46;;;;;;;25.55;17.25;;;6.80;62.80;;;;;;5052654;28;20478;-73
2021/03/22 04:16:13;;;;;;;28.05;17.98;;;6.80;63.00;;;;;;5051113;28;20029;-72
2021/03/22 04:18:40;;;;;;;24.50;17.60;;;6.80;63.10;;;;;;5051015;28;20555;-73
2021/03/22 04:21:12;;;;;;;28.60;18.17;;;6.70;63.20;;;;;;5052313;28;20070;-73
2021/03/22 04:23:40;;;;;;;24.58;16.70;;;6.70;63.30;;;;;;5051186;28;20032;-71
2021/03/22 04:26:06;;;;;;;21.70;15.35;;;6.80;63.40;;;;;;5052267;28;20342;-73
2021/03/22 04:28:32;;;;;;;24.45;16.80;;;6.80;63.40;;;;;;5052394;28;20044;-72
2021/03/22 04:30:58;;;;;;;20.52;13.93;;;6.80;63.40;;;;;;5051843;28;20029;-73
2021/03/22 04:33:24;;;;;;;24.63;16.45;;;6.70;63.30;;;;;;5052207;28;20033;-72
2021/03/22 04:35:50;;;;;;;25.67;16.40;;;6.80;63.30;;;;;;5052235;28;20032;-72
2021/03/22 04:38:17;;;;;;;23.02;16.13;;;6.80;63.20;;;;;;5051967;28;20025;-72
2021/03/22 04:40:43;;;;;;;25.77;15.93;;;6.80;63.20;;;;;;5051963;28;20033;-73
2021/03/22 04:43:09;;;;;;;22.45;15.00;;;6.80;63.20;;;;;;5052298;28;20040;-73
2021/03/22 04:45:35;;;;;;;26.00;17.05;;;6.70;63.20;;;;;;5050830;28;20119;-73
2021/03/22 04:48:01;;;;;;;28.88;18.08;;;6.70;63.10;;;;;;5051014;28;20502;-73
2021/03/22 04:50:28;;;;;;;25.88;18.02;;;6.70;63.20;;;;;;5051608;28;20040;-74
2021/03/22 04:52:54;;;;;;;30.55;17.45;;;6.60;63.30;;;;;;5050810;28;20049;-72
2021/03/22 04:55:21;;;;;;;32.13;17.88;;;6.60;63.40;;;;;;5051656;28;20033;-72
2021/03/22 04:57:48;;;;;;;22.58;15.48;;;6.60;63.50;;;;;;5051767;28;20025;-74
2021/03/22 05:00:27;;;;;;;28.13;17.98;;;6.60;63.40;;;;;;5052077;28;20025;-72
2021/03/22 05:02:56;;;;;;;28.98;18.15;;;6.50;63.60;;;;;;5061870;28;20111;-72
2021/03/22 05:05:24;;;;;;;28.83;18.77;;;6.50;63.90;;;;;;5071899;28;20024;-73
2021/03/22 05:07:50;;;;;;;29.38;19.63;;;6.50;64.00;;;;;;5071920;28;20025;-72
2021/03/22 05:10:31;;;;;;;27.10;17.85;;;6.50;64.20;;;;;;5064979;28;20387;-73
2021/03/22 05:12:56;;;;;;;23.77;16.63;;;6.50;64.30;;;;;;5051834;28;20025;-73
2021/03/22 05:15:23;;;;;;;27.05;17.63;;;6.50;64.40;;;;;;5066333;28;20029;-72
2021/03/22 05:17:50;;;;;;;25.35;16.88;;;6.50;64.40;;;;;;5071857;28;20020;-71
2021/03/22 05:20:31;;;;;;;27.38;18.58;;;6.50;64.40;;;;;;5065134;28;20120;-72
2021/03/22 05:22:59;;;;;;;25.67;16.13;;;6.50;64.50;;;;;;5051682;28;20061;-71
2021/03/22 05:25:25;;;;;;;25.63;17.77;;;6.50;64.50;;;;;;5067043;28;20029;-73
2021/03/22 05:27:50;;;;;;;31.55;18.83;;;6.60;64.50;;;;;;5051636;28;20550;-72
2021/03/22 05:30:17;;;;;;;29.27;18.00;;;6.60;64.60;;;;;;5051575;28;20371;-71
2021/03/22 05:32:43;;;;;;;28.52;18.13;;;6.60;64.50;;;;;;5051571;28;20033;-72
2021/03/22 05:35:16;;;;;;;25.63;16.23;;;6.60;64.40;;;;;;5051430;28;20033;-73
2021/03/22 05:37:42;;;;;;;25.17;16.48;;;6.70;64.40;;;;;;5051710;28;20083;-73
2021/03/22 05:40:12;;;;;;;24.58;15.77;;;6.70;64.30;;;;;;5051454;28;20489;-73
2021/03/22 05:43:04;;;;;;;23.58;14.82;;;6.80;64.30;;;;;;5051442;28;20048;-72
2021/03/22 05:45:58;;;;;;;25.73;16.52;;;6.80;64.30;;;;;;5054105;28;20032;-71
2021/03/22 05:48:58;;;;;;;26.20;17.17;;;6.80;64.10;;;;;;5053915;28;20036;-72
2021/03/22 05:51:57;;;;;;;24.67;15.40;;;6.80;64.10;;;;;;5055276;28;20045;-73
2021/03/22 05:54:50;;;;;;;26.75;17.73;;;6.90;64.00;;;;;;5060938;28;20508;-73
2021/03/22 05:57:39;;;;;;;27.30;17.52;;;6.90;64.00;;;;;;5074973;28;20039;-73
2021/03/22 06:00:26;;;;;;;33.78;20.05;;;6.90;64.00;;;;;;5071344;28;20029;-72
2021/03/22 06:02:57;;;;;;;28.90;18.77;;;6.90;64.20;;;;;;5054126;28;20485;-71
2021/03/22 06:05:47;;;;;;;27.55;18.25;;;7.00;64.30;;;;;;5054735;28;20029;-72
2021/03/22 06:08:28;;;;;;;29.80;19.63;;;7.00;64.30;;;;;;5054910;28;20029;-73
2021/03/22 06:10:55;;;;;;;24.83;17.58;;;7.00;64.20;;;;;;5061343;28;20027;-73
2021/03/22 06:13:38;;;;;;;30.27;19.92;;;7.00;64.10;;;;;;5073719;28;20041;-72
2021/03/22 06:16:18;;;;;;;29.10;17.20;;;7.00;63.90;;;;;;5073385;28;20077;-73
2021/03/22 06:18:57;;;;;;;29.45;19.42;;;7.00;63.70;;;;;;5074421;28;20093;-73
2021/03/22 06:21:25;;;;;;;35.00;21.45;;;7.00;63.50;;;;;;5062665;28;20029;-73
2021/03/22 06:23:51;;;;;;;32.60;20.38;;;7.00;63.60;;;;;;5056099;28;20151;-73
2021/03/22 06:26:35;;;;;;;30.73;20.88;;;7.00;63.60;;;;;;5065117;28;20494;-73
2021/03/22 06:29:21;;;;;;;30.92;20.65;;;6.90;63.80;;;;;;5054509;28;20478;-73
2021/03/22 06:31:50;;;;;;;40.13;22.40;;;6.90;63.90;;;;;;5063230;28;20111;-72
2021/03/22 06:34:21;;;;;;;33.42;21.98;;;6.90;64.10;;;;;;5070425;28;20036;-72
2021/03/22 06:36:47;;;;;;;34.00;21.30;;;6.90;64.20;;;;;;5071757;28;20025;-73
2021/03/22 06:39:20;;;;;;;30.67;20.25;;;6.80;64.30;;;;;;5072122;28;20025;-72
2021/03/22 06:41:47;;;;;;;34.28;20.38;;;6.80;64.50;;;;;;5074408;28;20020;-73
2021/03/22 06:44:19;;;;;;;30.67;19.67;;;6.90;64.60;;;;;;5060070;28;20082;-73
2021/03/22 06:46:58;;;;;;;32.47;21.17;;;6.90;64.70;;;;;;5054248;28;20032;-71
2021/03/22 06:49:39;;;;;;;28.02;18.75;;;6.90;64.60;;;;;;5054079;28;20033;-72
2021/03/22 06:52:13;;;;;;;28.60;19.15;;;6.90;64.60;;;;;;5053867;28;20524;-73
2021/03/22 06:54:46;;;;;;;27.10;18.25;;;6.90;64.60;;;;;;5054018;28;20029;-72
2021/03/22 06:57:25;;;;;;;27.55;17.10;;;6.90;64.60;;;;;;5054007;28;20040;-71
2021/03/22 07:00:09;;;;;;;27.17;16.50;;;7.00;64.60;;;;;;5054756;28;20029;-72
2021/03/22 07:02:59;;;;;;;41.30;17.77;;;7.10;64.50;;;;;;5060899;28;20074;-73
2021/03/22 07:05:24;;;;;;;26.30;16.73;;;7.10;64.20;;;;;;5054620;28;20482;-71
2021/03/22 07:07:55;;;;;;;21.92;14.48;;;7.10;63.90;;;;;;5053162;28;20033;-72
2021/03/22 07:10:23;;;;;;;21.23;13.05;;;7.20;63.70;;;;;;5054347;28;20056;-73
2021/03/22 07:13:15;;;;;;;21.05;13.55;;;7.30;63.70;;;;;;5054598;28;20033;-73
2021/03/22 07:15:41;;;;;;;24.80;14.15;;;7.30;63.50;;;;;;5054319;28;20445;-72
2021/03/22 07:18:30;;;;;;;26.17;13.93;;;7.40;63.20;;;;;;5054301;28;20017;-71
2021/03/22 07:21:12;;;;;;;26.92;14.27;;;7.50;62.90;;;;;;5054240;28;20512;-72
2021/03/22 07:23:42;;;;;;;24.42;13.73;;;7.50;62.20;;;;;;5052980;28;20036;-73
2021/03/22 07:26:29;;;;;;;21.33;13.80;;;7.60;62.10;;;;;;5054425;28;20040;-72
2021/03/22 07:29:28;;;;;;;22.60;13.52;;;7.60;61.80;;;;;;5052856;28;20457;-72
2021/03/22 07:32:28;;;;;;;22.73;13.75;;;7.80;61.50;;;;;;5058034;28;20433;-73
2021/03/22 07:35:23;;;;;;;25.88;13.48;;;7.90;61.20;;;;;;5063383;28;20104;-73
2021/03/22 07:37:59;;;;;;;;;;;8.00;60.50;;;;;;5053046;28;20470;-73
2021/03/22 07:40:46;;;;;;;24.63;12.93;;;8.10;60.90;;;;;;5053981;28;20321;-71
2021/03/22 07:43:35;;;;;;;21.30;11.30;;;8.10;59.90;;;;;;5053817;28;20036;-71
2021/03/22 07:46:28;;;;;;;20.70;11.93;;;8.20;59.70;;;;;;5053467;28;20048;-71
2021/03/22 07:49:13;;;;;;;24.35;12.73;;;8.30;59.60;;;;;;5053966;28;20024;-72
2021/03/22 07:52:02;;;;;;;20.45;12.32;;;8.30;59.30;;;;;;5053781;28;20036;-72
2021/03/22 07:54:52;;;;;;;23.10;12.32;;;8.40;59.10;;;;;;5053238;28;20024;-72
2021/03/22 07:57:48;;;;;;;24.75;11.80;;;8.40;58.90;;;;;;5053466;28;20039;-72
2021/03/22 08:00:36;;;;;;;23.65;12.32;;;8.40;58.10;;;;;;5053498;28;20025;-71
2021/03/22 08:03:14;;;;;;;20.67;11.90;;;8.40;58.20;;;;;;5053257;28;20059;-72
2021/03/22 08:06:07;;;;;;;16.95;10.88;;;8.40;57.50;;;;;;5052691;28;20029;-71
2021/03/22 08:09:13;;;;;;;22.92;10.80;;;8.40;57.50;;;;;;5052195;28;20091;-71
2021/03/22 08:11:50;;;;;;;20.33;10.77;;;8.50;57.70;;;;;;5053204;28;20474;-73
2021/03/22 08:14:20;;;;;;;17.52;10.57;;;8.50;57.30;;;;;;5051745;28;20033;-72
2021/03/22 08:17:05;;;;;;;16.80;9.75;;;8.60;57.50;;;;;;5052165;28;20029;-71
2021/03/22 08:19:55;;;;;;;20.48;10.82;;;8.70;57.50;;;;;;5053183;28;20025;-73
2021/03/22 08:22:49;;;;;;;20.02;9.48;;;8.70;57.70;;;;;;5051770;28;20540;-71
2021/03/22 08:25:20;;;;;;;18.13;9.32;;;8.90;57.50;;;;;;5051353;28;20064;-73
2021/03/22 08:28:18;;;;;;;16.08;8.90;;;9.00;57.50;;;;;;5051764;28;20112;-73
2021/03/22 08:31:02;;;;;;;15.60;8.88;;;9.10;56.70;;;;;;5063129;28;20379;-72
2021/03/22 08:33:36;;;;;;;16.67;8.23;;;9.20;56.30;;;;;;5053791;28;20047;-73
2021/03/22 08:36:40;;;;;;;28.38;8.70;;;9.30;56.30;;;;;;5052818;28;20033;-74
2021/03/22 08:39:31;;;;;;;18.73;8.63;;;9.40;55.60;;;;;;5051393;28;20021;-72
2021/03/22 08:42:12;;;;;;;16.40;7.40;;;9.50;55.30;;;;;;5052777;28;20428;-72
2021/03/22 08:45:03;;;;;;;12.43;6.25;;;9.60;54.60;;;;;;5052349;28;20099;-72
2021/03/22 08:47:52;;;;;;;22.17;7.57;;;9.70;53.20;;;;;;5066472;28;20067;-72
2021/03/22 08:50:38;;;;;;;17.50;6.72;;;9.80;53.20;;;;;;5062870;28;20049;-72
2021/03/22 08:53:09;;;;;;;20.75;7.28;;;9.90;52.80;;;;;;5051581;28;20100;-71
2021/03/22 08:55:44;;;;;;;18.17;8.00;;;9.90;51.70;;;;;;5051082;28;20120;-74
2021/03/22 08:58:25;;;;;;;;;;;9.90;51.50;;;;;;5053057;28;20017;-72
2021/03/22 09:01:13;;;;;;;18.98;6.13;;;9.90;52.90;;;;;;5052633;28;19960;-71
2021/03/22 09:03:41;;;;;;;16.30;6.90;;;10.00;51.50;;;;;;5050677;28;20033;-72
2021/03/22 09:06:17;;;;;;;11.77;5.63;;;10.00;50.90;;;;;;5067161;28;20028;-73
2021/03/22 09:08:55;;;;;;;17.23;6.97;;;10.00;50.00;;;;;;5070661;28;20767;-72
2021/03/22 09:11:27;;;;;;;15.50;5.35;;;10.00;49.80;;;;;;5052942;28;20021;-72
2021/03/22 09:14:08;;;;;;;16.65;5.03;;;9.90;48.80;;;;;;5050880;28;20075;-74
2021/03/22 09:16:39;;;;;;;15.82;5.28;;;10.00;49.10;;;;;;5051633;28;20049;-72
2021/03/22 09:19:19;;;;;;;21.33;5.93;;;10.00;49.70;;;;;;5057180;28;20017;-71
2021/03/22 09:22:00;;;;;;;13.45;5.15;;;10.10;49.60;;;;;;5076062;28;20104;-72
2021/03/22 09:24:40;;;;;;;13.63;5.18;;;10.20;49.30;;;;;;5075507;28;20060;-72
2021/03/22 09:27:22;;;;;;;19.17;4.88;;;10.30;48.90;;;;;;5076379;28;20157;-72
2021/03/22 09:29:49;;;;;;;11.88;4.38;;;10.30;47.90;;;;;;5075246;28;20052;-71
2021/03/22 09:32:23;;;;;;;7.25;3.97;;;10.40;48.00;;;;;;5075672;28;20724;-72
2021/03/22 09:34:49;;;;;;;22.27;5.20;;;10.40;47.60;;;;;;5075722;28;20470;-74
2021/03/22 09:37:43;;;;;;;16.27;4.75;;;10.50;47.70;;;;;;5056247;28;20017;-73
2021/03/22 09:40:32;;;;;;;18.58;4.57;;;10.60;47.10;;;;;;5055939;28;20032;-74
2021/03/22 09:43:10;;;;;;;30.35;4.70;;;10.70;47.70;;;;;;5056147;28;20029;-74
2021/03/22 09:45:52;;;;;;;9.82;3.78;;;10.70;47.40;;;;;;5056158;28;20108;-71
2021/03/22 09:48:20;;;;;;;10.90;3.03;;;10.80;45.30;;;;;;5056162;28;20025;-73
2021/03/22 09:50:50;;;;;;;8.77;3.85;;;10.80;44.90;;;;;;5068945;28;20435;-72
2021/03/22 09:53:22;;;;;;;8.90;3.15;;;10.80;43.70;;;;;;5074728;28;20029;-73
2021/03/22 09:56:04;;;;;;;12.07;3.40;;;10.80;43.30;;;;;;5075547;28;20103;-74
2021/03/22 09:58:44;;;;;;;7.30;2.78;;;10.80;44.10;;;;;;5073826;28;20074;-74
2021/03/22 10:01:28;;;;;;;7.75;2.58;;;10.80;43.50;;;;;;5055502;28;20021;-72
2021/03/22 10:04:13;;;;;;;6.68;2.30;;;10.90;42.30;;;;;;5054506;28;20025;-74
2021/03/22 10:06:41;;;;;;;5.07;2.25;;;11.00;42.30;;;;;;5054343;28;20025;-74
2021/03/22 10:09:17;;;;;;;8.98;1.85;;;11.00;41.50;;;;;;5055565;28;20017;-74
2021/03/22 10:11:46;;;;;;;10.15;2.55;;;11.20;42.10;;;;;;5054447;28;20021;-72
2021/03/22 10:14:25;;;;;;;6.25;2.50;;;11.30;42.60;;;;;;5055352;28;20048;-75
2021/03/22 10:16:52;;;;;;;5.65;2.30;;;11.40;41.90;;;;;;5055711;28;20021;-72
2021/03/22 10:19:20;;;;;;;6.60;1.98;;;11.50;41.30;;;;;;5055374;28;20486;-72
2021/03/22 10:22:12;;;;;;;3.90;1.92;;;11.70;40.40;;;;;;5055516;28;20036;-74
2021/03/22 10:25:01;;;;;;;5.20;2.08;;;11.90;40.00;;;;;;5055266;28;20037;-73
2021/03/22 10:27:36;;;;;;;6.72;1.73;;;12.10;38.00;;;;;;5055377;28;20035;-72
2021/03/22 10:30:13;;;;;;;6.25;1.70;;;12.30;37.20;;;;;;5062384;28;20054;-74
2021/03/22 10:32:48;;;;;;;3.88;1.20;;;12.40;38.40;;;;;;5072733;28;20619;-73
2021/03/22 10:35:20;;;;;;;6.65;2.00;;;12.50;37.70;;;;;;5073259;28;20386;-73
2021/03/22 10:37:49;;;;;;;11.32;2.03;;;12.60;36.10;;;;;;5055162;28;20024;-74
2021/03/22 10:40:31;;;;;;;14.48;2.10;;;12.70;35.80;;;;;;5055135;28;20024;-74
2021/03/22 10:42:57;;;;;;;5.15;1.50;;;12.80;37.40;;;;;;5053743;28;20042;-73
2021/03/22 10:45:23;;;;;;;4.45;1.63;;;12.90;35.80;;;;;;5056441;28;20043;-74
2021/03/22 10:47:53;;;;;;;5.80;1.70;;;13.00;35.70;;;;;;5059246;28;20025;-72
2021/03/22 10:50:30;;;;;;;7.60;1.52;;;13.10;36.00;;;;;;5058905;28;20052;-73
2021/03/22 10:53:07;;;;;;;6.25;1.30;;;13.20;35.10;;;;;;5054794;28;20024;-73
2021/03/22 10:55:34;;;;;;;4.57;1.30;;;13.20;35.70;;;;;;5053921;28;20104;-74
2021/03/22 10:58:02;;;;;;;4.15;1.20;;;13.30;35.40;;;;;;5054632;28;20024;-73
2021/03/22 11:00:33;;;;;;;4.45;1.40;;;13.40;35.00;;;;;;5054816;28;20025;-73
2021/03/22 11:03:02;;;;;;;3.20;1.45;;;13.50;34.20;;;;;;5062679;28;20526;-73
2021/03/22 11:05:33;;;;;;;4.60;1.60;;;13.60;33.70;;;;;;5060972;28;20505;-73
2021/03/22 11:08:06;;;;;;;5.63;1.55;;;13.70;32.10;;;;;;5056112;28;20036;-75
2021/03/22 11:10:34;;;;;;;3.33;1.30;;;13.70;33.50;;;;;;5054375;28;20043;-75
2021/03/22 11:13:01;;;;;;;3.75;1.23;;;13.80;33.10;;;;;;5054171;28;20036;-74
2021/03/22 11:15:38;;;;;;;5.38;1.88;;;13.90;32.70;;;;;;5065311;28;20056;-74
2021/03/22 11:18:06;;;;;;;4.20;1.50;;;13.90;33.60;;;;;;5060469;28;20025;-74
2021/03/22 11:20:33;;;;;;;3.35;1.33;;;13.90;33.50;;;;;;5052317;28;20048;-72
2021/03/22 11:23:13;;;;;;;7.68;1.67;;;13.90;32.70;;;;;;5054512;28;20032;-73
2021/03/22 11:25:39;;;;;;;9.27;2.17;;;14.00;32.50;;;;;;5064231;28;20069;-75
2021/03/22 11:28:20;;;;;;;6.00;1.70;;;14.00;31.30;;;;;;5060510;28;20032;-73
2021/03/22 11:30:49;;;;;;;5.65;1.77;;;14.00;31.30;;;;;;5072675;28;20546;-74
2021/03/22 11:33:36;;;;;;;3.60;1.77;;;14.00;31.70;;;;;;5060400;28;20545;-74
2021/03/22 11:36:12;;;;;;;4.43;1.63;;;14.00;31.60;;;;;;5054191;28;20037;-72
2021/03/22 11:38:46;;;;;;;3.88;1.75;;;14.10;31.80;;;;;;5057911;28;20382;-72
2021/03/22 11:41:40;;;;;;;8.50;1.58;;;14.10;30.30;;;;;;5070501;28;20031;-75
2021/03/22 11:44:15;;;;;;;5.28;1.80;;;14.10;32.00;;;;;;5064245;28;20063;-75
2021/03/22 11:46:45;;;;;;;5.18;1.60;;;14.10;31.20;;;;;;5053985;28;20060;-73
2021/03/22 11:49:39;;;;;;;6.70;2.03;;;14.00;31.50;;;;;;5053794;28;20378;-75
2021/03/22 11:52:15;;;;;;;6.38;2.30;;;14.00;31.60;;;;;;5053122;28;20053;-74
2021/03/22 11:55:27;;;;;;;6.30;2.33;;;13.90;31.10;;;;;;5059153;28;20178;-73
2021/03/22 11:57:53;;;;;;;6.18;2.70;;;13.90;32.20;;;;;;5067195;28;20074;-73
2021/03/22 12:00:21;;;;;;;5.55;2.28;;;13.90;31.50;;;;;;5058657;28;20409;-74
2021/03/22 12:03:00;;;;;;;7.28;1.98;;;13.90;31.00;;;;;;5053501;28;20387;-74
2021/03/22 12:05:34;;;;;;;4.13;1.92;;;13.80;30.50;;;;;;5052246;28;20025;-74
2021/03/22 12:08:00;;;;;;;8.10;2.13;;;13.80;30.30;;;;;;5052021;28;20478;-73
2021/03/22 12:10:31;;;;;;;5.15;2.17;;;13.70;31.10;;;;;;5059062;28;20060;-72
2021/03/22 12:12:59;;;;;;;17.35;2.25;;;13.70;31.30;;;;;;5073167;28;20097;-73
2021/03/22 12:15:26;;;;;;;5.93;2.28;;;13.60;31.70;;;;;;5063204;28;20386;-74
2021/03/22 12:17:58;;;;;;;7.75;2.17;;;13.60;31.50;;;;;;5052829;28;20031;-71
2021/03/22 12:20:27;;;;;;;11.73;2.35;;;13.60;31.80;;;;;;5053991;28;20052;-73
2021/03/22 12:22:54;;;;;;;4.18;2.10;;;13.60;32.00;;;;;;5053214;28;20025;-75
2021/03/22 12:25:32;;;;;;;5.88;2.47;;;13.60;32.10;;;;;;5053976;28;20075;-73
2021/03/22 12:27:58;;;;;;;7.55;2.00;;;13.60;31.60;;;;;;5065348;28;20371;-73
2021/03/22 12:30:28;;;;;;;7.10;2.20;;;13.70;32.00;;;;;;5072311;28;20025;-73
2021/03/22 12:32:55;;;;;;;5.85;1.95;;;13.70;31.20;;;;;;5063738;28;20021;-74
2021/03/22 12:35:31;;;;;;;7.40;2.30;;;13.80;31.80;;;;;;5070485;28;20113;-72
2021/03/22 12:37:57;;;;;;;14.10;2.97;;;13.90;31.10;;;;;;5061950;28;20397;-73
2021/03/22 12:40:24;;;;;;;14.23;2.92;;;14.10;31.20;;;;;;5073033;28;20025;-72
2021/03/22 12:42:50;;;;;;;7.47;2.80;;;14.20;30.20;;;;;;5065396;28;20024;-73
2021/03/22 12:45:38;;;;;;;6.60;2.35;;;14.30;29.90;;;;;;5066121;28;20035;-72
2021/03/22 12:48:14;;;;;;;8.90;2.78;;;14.30;30.50;;;;;;5054438;28;20074;-74
2021/03/22 12:50:49;;;;;;;10.85;3.25;;;14.40;30.20;;;;;;5057936;28;20090;-74
2021/03/22 12:53:23;;;;;;;7.03;3.00;;;14.40;30.70;;;;;;5072748;28;20359;-73
2021/03/22 12:55:53;;;;;;;10.32;2.45;;;14.40;30.20;;;;;;5073023;28;20031;-73
2021/03/22 12:58:25;;;;;;;5.63;2.45;;;14.50;30.80;;;;;;5073400;28;20025;-72
2021/03/22 13:00:52;;;;;;;8.70;2.80;;;14.60;30.00;;;;;;5062572;28;20367;-73
2021/03/22 13:03:23;;;;;;;6.57;2.53;;;14.70;30.20;;;;;;5052623;28;20017;-72
2021/03/22 13:05:52;;;;;;;7.85;2.47;;;14.80;30.00;;;;;;5056881;28;20433;-73
2021/03/22 13:08:18;;;;;;;5.45;2.30;;;14.90;30.40;;;;;;5062254;28;20055;-73
2021/03/22 13:10:44;;;;;;;5.40;2.45;;;15.00;29.60;;;;;;5070301;28;20029;-73
2021/03/22 13:13:10;;;;;;;9.43;3.42;;;15.00;29.70;;;;;;5063729;28;20155;-73
2021/03/22 13:15:41;;;;;;;5.70;2.55;;;15.00;29.80;;;;;;5054422;28;20059;-73